Time;durP1;ratioP1;P1;durP2;ratioP2;P2;SDS_P1;SDS_P2;PMS_P1;PMS_P2;Temp;Humidity;BMP_temperature;BMP_pressure;BME280_temperature;BME280_humidity;BME280_pressure;Samples;Min_cycle;Max_cycle;Signal;HPM_P1;HPM_P2
2022/02/08 00:00:30;;;;;;;26.52;7.12;;;;;;;1.35;93.10;99211.50;4367469;80;21065;-90
2022/02/08 00:12:34;;;;;;;29.77;7.00;;;;;;;1.36;92.97;99218.48;4366418;80;21073;-89
2022/02/08 00:18:36;;;;;;;26.93;5.85;;;;;;;1.36;93.00;99219.05;4351681;80;21098;-89
2022/02/08 00:24:39;;;;;;;30.30;6.75;;;;;;;1.39;92.88;99223.83;4270785;81;21929;-90
2022/02/08 00:30:41;;;;;;;25.57;6.35;;;;;;;1.39;92.77;99228.65;4295953;81;21083;-90
2022/02/08 00:36:43;;;;;;;25.23;5.28;;;;;;;1.41;92.96;99233.19;4346265;80;21105;-90
2022/02/08 00:42:44;;;;;;;28.07;5.92;;;;;;;1.41;92.97;99233.73;4283566;81;21094;-91
2022/02/08 00:48:56;;;;;;;32.90;6.50;;;;;;;1.44;92.81;99240.66;4428580;78;21066;-91
2022/02/08 00:54:52;;;;;;;26.90;5.80;;;;;;;1.45;92.67;99240.92;4459176;78;21525;-90
2022/02/08 01:00:54;;;;;;;30.72;6.15;;;;;;;1.44;92.87;99248.76;4457982;78;21033;-91
2022/02/08 01:06:58;;;;;;;31.05;6.25;;;;;;;1.47;92.92;99260.84;4369665;78;21727;-90
2022/02/08 01:12:59;;;;;;;24.55;6.08;;;;;;;1.48;92.78;99267.28;4423714;78;21695;-90
2022/02/08 01:19:03;;;;;;;27.40;5.62;;;;;;;1.50;92.78;99269.67;4338101;80;21067;-90
2022/02/08 01:25:07;;;;;;;21.30;4.62;;;;;;;1.52;92.67;99278.23;4283099;81;21058;-90
2022/02/08 01:31:14;;;;;;;30.43;5.92;;;;;;;1.52;92.79;99282.28;4256858;81;21357;-90
2022/02/08 01:37:42;;;;;;;23.00;5.22;;;;;;;1.52;92.92;99286.33;4324388;80;21011;-90
2022/02/08 01:44:05;;;;;;;18.98;4.95;;;;;;;1.51;92.75;99284.20;4368910;80;21077;-90
2022/02/08 01:49:58;;;;;;;24.05;5.33;;;;;;;1.54;92.63;99294.91;4350670;80;21068;-91
2022/02/08 01:55:50;;;;;;;18.67;4.97;;;;;;;1.53;92.56;99303.55;4196234;81;21136;-89
2022/02/08 02:01:52;;;;;;;20.48;4.47;;;;;;;1.53;92.70;99310.30;4321857;80;21038;-89
2022/02/08 02:07:54;;;;;;;23.00;5.08;;;;;;;1.53;92.57;99314.92;4296924;81;21495;-91
2022/02/08 02:13:58;;;;;;;20.27;4.58;;;;;;;1.51;92.67;99314.42;4275917;81;21033;-89
2022/02/08 02:19:59;;;;;;;31.93;4.67;;;;;;;1.52;92.62;99329.49;4289280;81;21067;-89
2022/02/08 02:26:01;;;;;;;30.37;5.08;;;;;;;1.48;92.62;99336.08;4286352;81;21503;-89
2022/02/08 02:32:04;;;;;;;17.25;4.10;;;;;;;1.51;92.59;99351.66;4330617;80;21125;-90
2022/02/08 02:38:07;;;;;;;22.25;5.03;;;;;;;1.48;92.80;99359.55;4293433;81;22180;-91
2022/02/08 02:44:21;;;;;;;19.30;4.40;;;;;;;1.49;92.58;99369.23;4342177;80;21181;-91
2022/02/08 02:50:19;;;;;;;17.23;3.92;;;;;;;1.47;92.67;99380.33;4322939;80;21069;-90
2022/02/08 02:56:21;;;;;;;20.37;4.40;;;;;;;1.48;92.64;99384.64;4244960;81;21081;-91
2022/02/08 03:02:39;;;;;;;15.98;3.98;;;;;;;1.45;92.86;99389.84;4221166;80;21134;-90
2022/02/08 03:21:19;;;;;;;22.73;4.00;;;;;;;1.36;92.95;99418.66;4173550;80;2306897;-92
2022/02/08 03:27:28;;;;;;;18.23;4.10;;;;;;;1.37;93.10;99423.74;4115423;84;21075;-91
2022/02/08 03:33:32;;;;;;;28.73;4.53;;;;;;;1.37;93.15;99431.84;4126231;85;21104;-92
2022/02/08 03:39:41;;;;;;;15.50;3.40;;;;;;;1.35;93.17;99442.66;4136767;84;21104;-92
2022/02/08 03:45:57;;;;;;;16.20;3.58;;;;;;;1.35;93.32;99444.02;4138032;84;21080;-91
2022/02/08 03:52:04;;;;;;;29.32;4.67;;;;;;;1.35;93.32;99453.45;4105617;84;21054;-92
2022/02/08 03:58:03;;;;;;;24.37;5.12;;;;;;;1.35;93.41;99472.34;4121580;84;21096;-90
2022/02/08 04:04:29;;;;;;;17.87;3.30;;;;;;;1.35;93.52;99482.59;4135100;84;21156;-90
2022/02/08 04:10:24;;;;;;;20.48;3.45;;;;;;;1.35;93.50;99487.98;4130048;84;21032;-91
2022/02/08 04:16:29;;;;;;;24.25;4.58;;;;;;;1.33;93.53;99493.44;4128235;85;21118;-90
2022/02/08 04:41:36;;;;;;;18.10;4.42;;;;;;;1.37;93.59;99546.48;4222423;82;21030;-90
2022/02/08 04:47:37;;;;;;;22.82;4.47;;;;;;;1.37;93.62;99553.77;4241580;81;21166;-92
2022/02/08 04:53:40;;;;;;;16.48;3.35;;;;;;;1.37;93.66;99553.77;4205653;82;21106;-91
2022/02/08 05:50:11;;;;;;;26.95;5.97;;;;;;;1.28;94.05;99600.08;4242009;83;21029;-92
2022/02/08 05:56:10;;;;;;;25.40;5.72;;;;;;;1.28;94.12;99619.77;4231162;82;21070;-91
2022/02/08 06:02:11;;;;;;;31.27;7.05;;;;;;;1.29;94.05;99622.70;4253769;81;21846;-91
2022/02/08 06:08:17;;;;;;;21.37;6.22;;;;;;;1.32;94.03;99622.64;4249674;82;21154;-91
2022/02/08 06:14:24;;;;;;;20.68;6.22;;;;;;;1.32;94.04;99628.04;4245281;82;21082;-91
2022/02/08 06:20:23;;;;;;;22.90;5.62;;;;;;;1.34;94.06;99633.41;4207496;82;21080;-91
2022/02/08 06:26:25;;;;;;;26.27;6.42;;;;;;;1.38;93.92;99641.67;4252343;82;21074;-91
2022/02/08 06:32:28;;;;;;;28.10;5.70;;;;;;;1.39;93.97;99654.09;4240770;82;21164;-90
2022/02/08 06:38:31;;;;;;;31.68;6.92;;;;;;;1.39;93.99;99663.53;4250515;82;21088;-90
2022/02/08 06:44:32;;;;;;;25.97;7.03;;;;;;;1.40;93.99;99674.56;4263290;81;21026;-91
2022/02/08 06:50:36;;;;;;;28.95;6.40;;;;;;;1.38;93.99;99670.81;4180534;83;21099;-91
2022/02/08 06:56:37;;;;;;;22.95;5.62;;;;;;;1.45;93.82;99682.02;4158756;83;21104;-92
2022/02/08 07:02:39;;;;;;;21.68;5.62;;;;;;;1.53;93.85;99696.14;4155220;84;21120;-91
2022/02/08 07:08:44;;;;;;;22.22;5.45;;;;;;;1.59;93.71;99698.21;4106909;85;21118;-90
2022/02/08 07:14:46;;;;;;;23.60;6.20;;;;;;;1.68;93.48;99705.08;4135773;84;21068;-91
2022/02/08 07:20:48;;;;;;;25.25;6.92;;;;;;;1.73;93.45;99711.16;4142588;84;21639;-90
2022/02/08 07:26:55;;;;;;;29.27;9.25;;;;;;;1.79;93.36;99715.36;4140664;85;21060;-90
2022/02/08 07:32:54;;;;;;;31.00;8.13;;;;;;;1.88;93.08;99722.22;4140136;84;21539;-91
2022/02/08 07:38:56;;;;;;;28.25;7.65;;;;;;;1.98;93.11;99720.11;4135620;83;21123;-90
2022/02/08 07:44:57;;;;;;;28.57;8.05;;;;;;;2.18;93.56;99727.79;4105005;84;21095;-90
2022/02/08 07:51:00;;;;;;;27.25;7.72;;;;;;;2.36;92.82;99730.93;4130745;84;21083;-90
2022/02/08 07:57:02;;;;;;;28.12;7.47;;;;;;;2.40;92.15;99732.45;4142819;85;21528;-91
2022/02/08 08:03:08;;;;;;;24.52;6.22;;;;;;;2.46;92.24;99732.61;4135760;85;21536;-91
2022/02/08 08:09:10;;;;;;;28.23;8.75;;;;;;;2.60;92.25;99740.14;4136506;84;21447;-90
2022/02/08 08:15:24;;;;;;;34.45;8.20;;;;;;;2.84;92.39;99740.09;4138510;84;21067;-91
2022/02/08 08:21:14;;;;;;;27.37;5.85;;;;;;;2.94;91.95;99733.66;4114584;84;21034;-90
2022/02/08 08:27:18;;;;;;;28.45;7.35;;;;;;;2.97;91.29;99751.97;4122723;85;21087;-91
2022/02/08 08:33:22;;;;;;;25.37;5.45;;;;;;;2.91;91.23;99747.22;4230738;81;20990;-92
2022/02/08 08:39:28;;;;;;;20.52;5.20;;;;;;;2.94;90.92;99748.53;4227874;81;21106;-91
2022/02/08 08:51:45;;;;;;;29.35;6.97;;;;;;;3.09;90.73;99734.63;4236204;81;21062;-89
2022/02/08 08:57:48;;;;;;;20.57;4.92;;;;;;;3.18;89.99;99723.30;4154817;83;21044;-91
2022/02/08 09:03:54;;;;;;;16.77;3.93;;;;;;;3.27;88.10;99714.71;4135798;84;21107;-89
2022/02/08 09:10:00;;;;;;;13.03;3.90;;;;;;;3.43;89.30;99706.99;4100634;84;21091;-89
2022/02/08 09:16:17;;;;;;;27.17;5.67;;;;;;;3.59;87.50;99711.68;4147285;84;21088;-91
2022/02/08 09:34:23;;;;;;;21.85;4.60;;;;;;;4.15;87.23;99704.16;4151695;83;21155;-89
2022/02/08 09:40:28;;;;;;;16.35;4.60;;;;;;;4.42;86.66;99710.65;4147938;83;21084;-91
2022/02/08 09:46:37;;;;;;;19.85;4.40;;;;;;;4.39;86.26;99710.73;4109116;86;21577;-91
2022/02/08 09:52:47;;;;;;;23.92;5.37;;;;;;;4.44;86.12;99715.20;4107643;84;21099;-92
2022/02/08 09:58:43;;;;;;;19.20;6.10;;;;;;;4.40;85.70;99720.45;4123634;84;22199;-91
2022/02/08 10:04:44;;;;;;;30.70;7.80;;;;;;;4.25;84.42;99702.50;4132125;85;21049;-90
2022/02/08 10:10:51;;;;;;;17.92;6.03;;;;;;;4.01;85.33;99714.33;4105579;84;21042;-91
2022/02/08 10:23:27;;;;;;;21.35;5.92;;;;;;;4.11;84.25;99680.95;4115214;84;21454;-91
2022/02/08 10:41:58;;;;;;;20.37;7.15;;;;;;;5.36;84.38;99659.82;4131339;85;21634;-90
2022/02/08 10:48:11;;;;;;;20.40;5.17;;;;;;;5.62;83.45;99665.95;4160963;84;21152;-92
2022/02/08 10:54:26;;;;;;;17.40;5.97;;;;;;;5.27;82.45;99656.89;4139339;84;21535;-91
2022/02/08 11:00:28;;;;;;;;;;;;;;;5.39;80.45;99655.65;4261338;81;22041;-90
2022/02/08 11:06:40;;;;;;;17.52;5.42;;;;;;;5.20;80.57;99657.97;4255994;81;20561;-92
2022/02/08 11:13:02;;;;;;;15.30;5.43;;;;;;;5.12;81.89;99648.70;4256003;81;21093;-91
2022/02/08 11:19:21;;;;;;;21.27;5.62;;;;;;;5.29;82.16;99642.45;4178891;83;21080;-91
2022/02/08 11:25:30;;;;;;;16.52;4.87;;;;;;;5.64;80.71;99630.31;4195517;83;21172;-91
2022/02/08 11:31:35;;;;;;;16.57;5.10;;;;;;;5.63;80.13;99621.94;4166250;83;21142;-90
2022/02/08 11:44:22;;;;;;;18.73;4.90;;;;;;;5.57;80.26;99602.33;4102104;84;21138;-91
2022/02/08 12:09:56;;;;;;;22.62;5.33;;;;;;;5.46;78.98;99573.14;4270867;81;21082;-90
2022/02/08 12:35:52;;;;;;;15.98;4.78;;;;;;;6.06;77.42;99549.92;4221357;82;21066;-91
2022/02/08 13:01:29;;;;;;;7.90;2.85;;;;;;;6.27;73.10;99496.91;4222220;81;21064;-91
2022/02/08 14:10:39;;;;;;;11.35;5.75;;;;;;;5.53;69.76;99456.09;4249899;81;21003;-91
2022/02/08 14:23:06;;;;;;;11.55;4.58;;;;;;;5.25;70.24;99448.20;4234336;81;21022;-91
2022/02/08 15:12:49;;;;;;;9.90;4.93;;;;;;;4.41;72.01;99456.41;4227796;82;21062;-91
2022/02/08 15:18:46;;;;;;;14.63;5.87;;;;;;;4.35;72.17;99448.77;4215587;82;21101;-90
2022/02/08 15:24:48;;;;;;;17.95;5.95;;;;;;;4.26;72.77;99437.94;4213045;82;21036;-90
2022/02/08 15:30:49;;;;;;;14.43;5.90;;;;;;;4.24;73.14;99454.30;4234904;82;21101;-90
2022/02/08 15:36:52;;;;;;;17.00;6.60;;;;;;;4.22;73.55;99448.39;4239423;83;21058;-90
2022/02/08 15:42:56;;;;;;;15.30;6.33;;;;;;;4.18;74.31;99454.23;4227086;82;21509;-91
2022/02/08 15:48:57;;;;;;;14.03;5.42;;;;;;;4.12;75.08;99441.40;4223384;82;21098;-90
2022/02/08 15:55:00;;;;;;;19.75;6.35;;;;;;;4.03;75.83;99437.11;4236844;82;21077;-91
2022/02/08 16:01:07;;;;;;;18.42;6.85;;;;;;;3.93;76.59;99443.65;4246816;83;21089;-90
2022/02/08 16:07:16;;;;;;;16.27;7.65;;;;;;;3.86;77.55;99428.45;4250796;82;21044;-91
2022/02/08 16:13:28;;;;;;;19.00;7.17;;;;;;;3.84;77.19;99427.17;4240403;81;21097;-91
2022/02/08 16:19:34;;;;;;;14.95;7.37;;;;;;;3.85;77.85;99413.88;4195404;82;21065;-92
2022/02/08 16:32:08;;;;;;;16.60;7.28;;;;;;;3.90;78.81;99414.50;4250952;81;21080;-90
2022/02/08 17:02:57;;;;;;;20.00;7.75;;;;;;;3.83;80.27;99424.23;4236206;82;21566;-91
2022/02/08 17:09:04;;;;;;;13.00;6.37;;;;;;;3.80;80.92;99421.61;4231515;82;21124;-90
2022/02/08 17:47:20;;;;;;;20.80;8.88;;;;;;;3.72;83.38;99406.17;4234991;82;21989;-91
2022/02/08 17:53:00;;;;;;;18.95;7.53;;;;;;;3.74;83.90;99416.67;4210962;82;21051;-90
2022/02/08 17:59:04;;;;;;;18.48;8.58;;;;;;;3.73;84.29;99418.58;4227547;82;21520;-92
2022/02/08 18:05:08;;;;;;;16.75;7.50;;;;;;;3.73;84.73;99423.22;4227991;83;21554;-90
2022/02/08 18:11:13;;;;;;;20.43;9.75;;;;;;;3.70;84.93;99423.28;4222345;83;21597;-90
2022/02/08 18:17:21;;;;;;;21.77;10.45;;;;;;;3.72;85.28;99417.55;4249984;82;21604;-90
2022/02/08 19:14:31;;;;;;;15.98;9.18;;;;;;;3.93;90.07;99431.46;4252444;82;21053;-90
2022/02/08 19:26:23;;;;;;;21.30;9.63;;;;;;;3.99;91.11;99438.88;4243849;82;21072;-92
2022/02/08 19:32:24;;;;;;;20.37;10.18;;;;;;;4.03;91.30;99435.75;4245691;82;21065;-91
2022/02/08 19:38:27;;;;;;;20.43;10.13;;;;;;;4.04;91.26;99461.16;4239815;82;21325;-91
2022/02/08 19:44:29;;;;;;;17.85;10.95;;;;;;;4.07;92.82;99472.72;4242670;82;21557;-92
2022/02/08 19:50:36;;;;;;;16.77;9.88;;;;;;;4.12;92.70;99466.36;4247215;81;21103;-90
2022/02/08 19:56:49;;;;;;;17.77;9.53;;;;;;;4.17;93.62;99475.66;4222721;82;21069;-92
2022/02/08 20:02:50;;;;;;;21.17;11.43;;;;;;;4.18;93.64;99475.33;4250322;83;21585;-92
2022/02/08 20:08:55;;;;;;;22.22;11.33;;;;;;;4.22;95.26;99476.84;4253746;81;21073;-92
2022/02/08 20:15:04;;;;;;;18.87;11.20;;;;;;;4.19;94.24;99473.43;4235692;82;21099;-91
2022/02/08 20:21:06;;;;;;;19.80;10.88;;;;;;;4.22;94.47;99474.14;4068951;85;21525;-91
2022/02/08 20:33:28;;;;;;;17.50;8.83;;;;;;;4.28;95.96;99484.49;4123412;84;21096;-92
2022/02/08 20:39:31;;;;;;;13.83;9.10;;;;;;;4.30;96.22;99485.53;4243036;82;21120;-92
2022/02/08 20:45:37;;;;;;;12.53;8.50;;;;;;;4.32;96.24;99483.30;4254225;82;21628;-91
2022/02/08 20:51:48;;;;;;;16.37;10.05;;;;;;;4.32;95.78;99485.43;4245716;82;22264;-93
